Time;durP1;ratioP1;P1;durP2;ratioP2;P2;SDS_P1;SDS_P2;PMS_P1;PMS_P2;Temp;Humidity;BMP_temperature;BMP_pressure;BME280_temperature;BME280_humidity;BME280_pressure;Samples;Min_cycle;Max_cycle;Signal;HPM_P1;HPM_P2
2021/08/15 00:02:09;;;;;;;;;;;18.00;99.90;;;;;;1870132;77;20214;-70
2021/08/15 00:04:36;;;;;;;;;;;18.00;99.90;;;;;;1870181;77;20156;-70
2021/08/15 00:07:03;;;;;;;;;;;18.10;99.90;;;;;;1870133;76;20179;-69
2021/08/15 00:09:30;;;;;;;;;;;18.20;99.90;;;;;;1870380;77;20453;-70
2021/08/15 00:11:57;;;;;;;;;;;18.20;99.90;;;;;;1874908;76;20195;-69
2021/08/15 00:14:23;;;;;;;;;;;18.30;99.90;;;;;;1877834;76;20322;-70
2021/08/15 00:16:50;;;;;;;;;;;18.30;99.90;;;;;;1870959;76;20520;-70
2021/08/15 00:19:17;;;;;;;;;;;18.20;99.90;;;;;;1870285;77;20168;-69
2021/08/15 00:21:44;;;;;;;;;;;18.30;99.90;;;;;;1870272;77;20406;-70
2021/08/15 00:24:11;;;;;;;;;;;18.20;99.90;;;;;;1870315;77;20129;-70
2021/08/15 00:26:37;;;;;;;;;;;18.30;99.90;;;;;;1872141;76;20535;-68
2021/08/15 00:29:04;;;;;;;;;;;18.20;99.90;;;;;;1880199;76;20203;-70
2021/08/15 00:31:33;;;;;;;;;;;18.10;99.90;;;;;;1872143;76;20429;-70
2021/08/15 00:34:00;;;;;;;;;;;18.10;99.90;;;;;;1891173;76;20146;-69
2021/08/15 00:36:27;;;;;;;;;;;18.10;99.90;;;;;;1891290;76;20144;-70
2021/08/15 00:38:54;;;;;;;;;;;18.20;99.90;;;;;;1891221;76;20286;-69
2021/08/15 00:41:21;;;;;;;;;;;18.10;99.90;;;;;;1891256;76;20257;-69
2021/08/15 00:43:48;;;;;;;;;;;18.10;99.90;;;;;;1902002;74;20231;-69
2021/08/15 00:46:15;;;;;;;;;;;18.20;99.90;;;;;;1931300;74;20239;-70
2021/08/15 00:48:42;;;;;;;;;;;18.10;99.90;;;;;;1931171;74;20125;-69
2021/08/15 00:51:08;;;;;;;;;;;18.10;99.90;;;;;;1930932;74;20172;-70
2021/08/15 00:53:36;;;;;;;;;;;18.00;99.90;;;;;;1924766;74;20443;-69
2021/08/15 00:56:03;;;;;;;;;;;18.10;99.90;;;;;;1924993;74;20481;-70
2021/08/15 00:58:31;;;;;;;;;;;18.10;99.90;;;;;;1925013;74;20122;-69
2021/08/15 01:00:59;;;;;;;;;;;18.10;99.90;;;;;;1903613;74;20238;-70
2021/08/15 01:03:26;;;;;;;;;;;18.10;99.90;;;;;;1868914;76;20179;-70
2021/08/15 01:05:53;;;;;;;;;;;18.10;99.90;;;;;;1870401;76;20445;-70
2021/08/15 01:08:20;;;;;;;;;;;18.10;99.90;;;;;;1866180;76;20200;-69
2021/08/15 01:10:47;;;;;;;;;;;18.00;99.90;;;;;;1878196;76;20183;-71
2021/08/15 01:13:15;;;;;;;;;;;18.00;99.90;;;;;;1873272;76;20195;-70
2021/08/15 01:15:42;;;;;;;;;;;18.00;99.90;;;;;;1877614;76;20128;-69
2021/08/15 01:18:19;;;;;;;;;;;18.00;99.90;;;;;;1878989;76;20148;-69
2021/08/15 01:20:45;;;;;;;;;;;18.00;99.90;;;;;;1876657;76;20171;-68
2021/08/15 01:23:12;;;;;;;;;;;17.90;99.90;;;;;;1878167;76;20187;-68
2021/08/15 01:25:40;;;;;;;;;;;17.90;99.90;;;;;;1865244;76;20175;-69
2021/08/15 01:28:08;;;;;;;;;;;17.90;99.90;;;;;;1859556;76;20219;-68
2021/08/15 01:30:35;;;;;;;;;;;17.90;99.90;;;;;;1870164;76;20217;-69
2021/08/15 01:33:01;;;;;;;;;;;17.90;99.90;;;;;;1879064;76;20179;-69
2021/08/15 01:35:29;;;;;;;;;;;17.90;99.90;;;;;;1869611;76;20176;-69
2021/08/15 01:37:55;;;;;;;;;;;17.80;99.90;;;;;;1878986;76;20170;-69
2021/08/15 01:40:22;;;;;;;;;;;17.80;99.90;;;;;;1874456;76;20563;-69
2021/08/15 01:42:49;;;;;;;;;;;17.80;99.90;;;;;;1879417;76;20183;-69
2021/08/15 01:45:16;;;;;;;;;;;17.80;99.90;;;;;;1879263;76;20128;-69
2021/08/15 01:47:43;;;;;;;;;;;17.80;99.90;;;;;;1879233;76;20217;-68
2021/08/15 01:50:10;;;;;;;;;;;17.80;99.90;;;;;;1874186;76;20179;-68
2021/08/15 01:52:36;;;;;;;;;;;17.80;99.90;;;;;;1870559;76;20128;-68
2021/08/15 01:55:04;;;;;;;;;;;17.70;99.90;;;;;;1875978;76;20198;-69
2021/08/15 01:57:31;;;;;;;;;;;17.60;99.90;;;;;;1876540;76;20513;-69
2021/08/15 01:59:58;;;;;;;;;;;17.70;99.90;;;;;;1868408;77;20176;-69
2021/08/15 02:02:25;;;;;;;;;;;17.70;99.90;;;;;;1879007;75;20853;-69
2021/08/15 02:04:51;;;;;;;;;;;17.70;99.90;;;;;;1879852;76;20206;-69
2021/08/15 02:07:18;;;;;;;;;;;17.70;99.90;;;;;;1879352;76;20469;-69
2021/08/15 02:09:45;;;;;;;;;;;17.60;99.90;;;;;;1875368;76;20167;-67
2021/08/15 02:12:12;;;;;;;;;;;17.60;99.90;;;;;;1878506;75;20508;-68
2021/08/15 02:14:39;;;;;;;;;;;17.50;99.90;;;;;;1876627;76;20219;-69
2021/08/15 02:17:05;;;;;;;;;;;17.50;99.90;;;;;;1861226;76;20219;-68
2021/08/15 02:19:33;;;;;;;;;;;17.60;99.90;;;;;;1871762;76;20199;-69
2021/08/15 02:22:00;;;;;;;;;;;17.50;99.90;;;;;;1869085;76;20187;-69
2021/08/15 02:24:27;;;;;;;;;;;17.50;99.90;;;;;;1877631;76;20163;-69
2021/08/15 02:26:53;;;;;;;;;;;17.60;99.90;;;;;;1877783;76;20179;-69
2021/08/15 02:29:20;;;;;;;;;;;17.60;99.90;;;;;;1873245;76;20210;-69
2021/08/15 02:31:47;;;;;;;;;;;17.60;99.90;;;;;;1878088;76;20136;-69
2021/08/15 02:34:14;;;;;;;;;;;17.60;99.90;;;;;;1881149;76;20164;-68
2021/08/15 02:36:41;;;;;;;;;;;17.60;99.90;;;;;;1877671;76;20184;-69
2021/08/15 02:39:07;;;;;;;;;;;17.60;99.90;;;;;;1877134;76;20169;-68
2021/08/15 02:41:35;;;;;;;;;;;17.60;99.90;;;;;;1879394;76;20175;-68
2021/08/15 02:44:02;;;;;;;;;;;17.60;99.90;;;;;;1877909;75;20266;-69
2021/08/15 02:46:28;;;;;;;;;;;17.50;99.90;;;;;;1879443;76;20291;-69
2021/08/15 02:48:55;;;;;;;;;;;17.50;99.90;;;;;;1878254;76;20163;-69
2021/08/15 02:51:22;;;;;;;;;;;17.50;99.90;;;;;;1881375;76;20168;-69
2021/08/15 02:53:50;;;;;;;;;;;17.50;99.90;;;;;;1893220;72;20165;-72
2021/08/15 02:56:17;;;;;;;;;;;17.50;99.90;;;;;;1925146;74;20127;-73
2021/08/15 02:58:44;;;;;;;;;;;17.50;99.90;;;;;;1923675;73;20399;-73
2021/08/15 03:01:11;;;;;;;;;;;17.20;99.90;;;;;;1919555;74;20189;-73
2021/08/15 03:03:37;;;;;;;;;;;17.30;99.90;;;;;;1952047;72;20431;-74
2021/08/15 03:06:04;;;;;;;;;;;17.30;99.90;;;;;;1903237;74;20172;-73
2021/08/15 03:08:31;;;;;;;;;;;17.30;99.90;;;;;;1950520;73;20551;-74
2021/08/15 03:10:58;;;;;;;;;;;17.30;99.90;;;;;;1948563;73;20543;-73
2021/08/15 03:13:25;;;;;;;;;;;17.40;99.90;;;;;;1914459;73;20464;-74
2021/08/15 03:15:51;;;;;;;;;;;17.30;99.90;;;;;;1950824;73;20170;-74
2021/08/15 03:18:18;;;;;;;;;;;17.20;99.90;;;;;;1966003;72;20167;-74
2021/08/15 03:20:45;;;;;;;;;;;17.30;99.90;;;;;;1948674;72;20236;-74
2021/08/15 03:23:12;;;;;;;;;;;17.30;99.90;;;;;;1957532;72;20184;-74
2021/08/15 03:25:39;;;;;;;;;;;17.30;99.90;;;;;;1941953;73;20183;-74
2021/08/15 03:28:06;;;;;;;;;;;17.30;99.90;;;;;;1953248;73;20534;-74
2021/08/15 03:30:33;;;;;;;;;;;17.40;99.90;;;;;;1952647;73;20204;-75
2021/08/15 03:33:00;;;;;;;;;;;17.40;99.90;;;;;;1948770;72;20187;-74
2021/08/15 03:35:27;;;;;;;;;;;17.40;99.90;;;;;;1932430;73;20175;-74
2021/08/15 03:37:54;;;;;;;;;;;17.40;99.90;;;;;;1949637;73;20119;-74
2021/08/15 03:40:20;;;;;;;;;;;17.40;99.90;;;;;;1943019;73;20159;-73
2021/08/15 03:42:47;;;;;;;;;;;17.40;99.90;;;;;;1915980;73;20181;-74
2021/08/15 03:45:14;;;;;;;;;;;17.40;99.90;;;;;;1912397;74;20123;-74
2021/08/15 03:47:41;;;;;;;;;;;17.30;99.90;;;;;;1918742;73;20198;-74
2021/08/15 03:50:08;;;;;;;;;;;17.40;99.90;;;;;;1943570;73;20177;-74
2021/08/15 03:52:38;;;;;;;;;;;17.30;99.90;;;;;;1964480;72;20167;-74
2021/08/15 03:55:07;;;;;;;;;;;17.40;99.90;;;;;;1934719;73;20185;-74
2021/08/15 03:57:34;;;;;;;;;;;17.40;99.90;;;;;;1952071;72;20214;-74
2021/08/15 04:00:01;;;;;;;;;;;17.40;99.90;;;;;;1949535;72;20514;-74
2021/08/15 04:02:29;;;;;;;;;;;17.50;99.90;;;;;;1955219;72;20170;-74
2021/08/15 04:04:56;;;;;;;;;;;17.40;99.90;;;;;;1952413;72;20202;-73
2021/08/15 04:07:23;;;;;;;;;;;17.40;99.90;;;;;;1969388;72;20162;-74
2021/08/15 04:09:50;;;;;;;;;;;17.40;99.90;;;;;;1968313;72;20159;-73
2021/08/15 04:12:17;;;;;;;;;;;17.40;99.90;;;;;;1955360;72;20183;-73
2021/08/15 04:14:43;;;;;;;;;;;17.40;99.90;;;;;;1956819;72;20489;-73
2021/08/15 04:17:10;;;;;;;;;;;17.40;99.90;;;;;;1917617;73;20201;-73
2021/08/15 04:19:37;;;;;;;;;;;17.40;99.90;;;;;;1923249;73;20220;-74
2021/08/15 04:22:04;;;;;;;;;;;17.40;99.90;;;;;;1930748;73;20705;-73
2021/08/15 04:24:31;;;;;;;;;;;17.40;99.90;;;;;;1932800;72;20219;-73
2021/08/15 04:26:57;;;;;;;;;;;17.40;99.90;;;;;;1931731;73;20167;-73
2021/08/15 04:29:24;;;;;;;;;;;17.50;99.90;;;;;;1945794;74;20163;-74
2021/08/15 04:31:51;;;;;;;;;;;17.50;99.90;;;;;;1918608;74;20192;-74
2021/08/15 04:34:18;;;;;;;;;;;17.40;99.90;;;;;;1932526;73;20173;-75
2021/08/15 04:36:44;;;;;;;;;;;17.50;99.90;;;;;;1958658;72;20208;-76
2021/08/15 04:39:11;;;;;;;;;;;17.40;99.90;;;;;;1942424;73;20326;-75
2021/08/15 04:41:38;;;;;;;;;;;17.30;99.90;;;;;;1926900;74;20179;-75
2021/08/15 04:44:05;;;;;;;;;;;17.40;99.90;;;;;;1934362;72;20154;-75
2021/08/15 04:46:32;;;;;;;;;;;17.40;99.90;;;;;;1905962;73;20286;-75
2021/08/15 04:48:58;;;;;;;;;;;17.40;99.90;;;;;;1943070;72;20174;-76
2021/08/15 04:51:25;;;;;;;;;;;17.40;99.90;;;;;;1904496;73;20228;-75
2021/08/15 04:53:52;;;;;;;;;;;17.40;99.90;;;;;;1935822;73;20200;-75
2021/08/15 04:56:19;;;;;;;;;;;17.50;99.90;;;;;;1953853;73;20197;-72
2021/08/15 04:58:46;;;;;;;;;;;17.50;99.90;;;;;;1954203;72;20187;-72
2021/08/15 05:01:12;;;;;;;;;;;17.60;99.90;;;;;;1942210;72;20313;-72
2021/08/15 05:03:40;;;;;;;;;;;17.60;99.90;;;;;;1945439;72;20271;-72
2021/08/15 05:06:06;;;;;;;;;;;17.60;99.90;;;;;;1918370;73;20165;-73
2021/08/15 05:08:33;;;;;;;;;;;17.50;99.90;;;;;;1944068;72;20169;-73
2021/08/15 05:11:00;;;;;;;;;;;17.60;99.90;;;;;;1931106;73;20184;-72
2021/08/15 05:13:27;;;;;;;;;;;17.70;99.90;;;;;;1933957;74;20178;-73
2021/08/15 05:15:54;;;;;;;;;;;17.70;99.90;;;;;;1951513;72;20223;-73
2021/08/15 05:18:21;;;;;;;;;;;17.70;99.90;;;;;;1932974;74;20120;-73
2021/08/15 05:20:48;;;;;;;;;;;17.70;99.90;;;;;;1927880;72;20162;-73
2021/08/15 05:23:15;;;;;;;;;;;17.70;99.90;;;;;;1930182;74;20451;-72
2021/08/15 05:25:42;;;;;;;;;;;17.60;99.90;;;;;;1934254;72;20157;-73
2021/08/15 05:28:09;;;;;;;;;;;17.70;99.90;;;;;;1935473;74;20183;-73
2021/08/15 05:30:38;;;;;;;;;;;17.70;99.90;;;;;;1942668;72;20149;-71
2021/08/15 05:33:04;;;;;;;;;;;17.70;99.90;;;;;;1925699;73;20184;-71
2021/08/15 05:35:31;;;;;;;;;;;17.70;99.90;;;;;;1945151;72;20223;-73
2021/08/15 05:37:58;;;;;;;;;;;17.70;99.90;;;;;;1921942;73;20126;-73
2021/08/15 05:40:25;;;;;;;;;;;17.80;99.90;;;;;;1936744;72;20263;-74
2021/08/15 05:42:51;;;;;;;;;;;17.80;99.90;;;;;;1964917;72;20389;-71
2021/08/15 05:45:18;;;;;;;;;;;17.80;99.90;;;;;;1957199;73;20177;-71
2021/08/15 05:47:45;;;;;;;;;;;17.90;99.90;;;;;;1932897;74;20200;-73
2021/08/15 05:50:12;;;;;;;;;;;17.90;99.90;;;;;;1914325;74;20214;-73
2021/08/15 05:52:39;;;;;;;;;;;17.90;99.90;;;;;;1953615;70;20117;-73
2021/08/15 05:55:06;;;;;;;;;;;17.90;99.90;;;;;;1966089;72;20141;-72
2021/08/15 05:57:33;;;;;;;;;;;18.00;99.90;;;;;;1904628;73;20218;-73
2021/08/15 06:00:00;;;;;;;;;;;18.00;99.90;;;;;;1915092;73;20156;-73
2021/08/15 06:02:27;;;;;;;;;;;18.00;99.90;;;;;;1914644;73;20165;-73
2021/08/15 06:04:54;;;;;;;;;;;17.90;99.90;;;;;;1947692;73;20104;-73
2021/08/15 06:07:21;;;;;;;;;;;18.00;99.90;;;;;;1935054;73;20147;-73
2021/08/15 06:09:47;;;;;;;;;;;18.00;99.90;;;;;;1951530;72;20137;-72
2021/08/15 06:12:14;;;;;;;;;;;18.00;99.90;;;;;;1915141;74;20162;-72
2021/08/15 06:14:41;;;;;;;;;;;18.00;99.90;;;;;;1917506;74;20193;-72
2021/08/15 06:17:08;;;;;;;;;;;18.00;99.90;;;;;;1960611;72;20406;-72
2021/08/15 06:19:35;;;;;;;;;;;18.00;99.90;;;;;;1943638;72;20696;-72
2021/08/15 06:22:02;;;;;;;;;;;18.10;99.90;;;;;;1951754;72;20159;-72
2021/08/15 06:24:29;;;;;;;;;;;18.10;99.90;;;;;;1917474;74;20219;-72
2021/08/15 06:26:56;;;;;;;;;;;18.10;99.90;;;;;;1920204;74;20196;-75
2021/08/15 06:29:23;;;;;;;;;;;18.10;99.90;;;;;;1909713;73;20215;-72
2021/08/15 06:31:50;;;;;;;;;;;18.00;99.90;;;;;;1933558;73;20183;-75
2021/08/15 06:34:16;;;;;;;;;;;18.00;99.90;;;;;;1915781;74;20194;-75
2021/08/15 06:36:43;;;;;;;;;;;18.00;99.90;;;;;;1905714;74;20453;-73
2021/08/15 06:39:10;;;;;;;;;;;18.00;99.90;;;;;;1919277;73;20182;-75
2021/08/15 06:41:37;;;;;;;;;;;18.00;99.90;;;;;;1919132;73;20534;-75
2021/08/15 06:44:04;;;;;;;;;;;18.00;99.90;;;;;;1929979;72;20189;-76
2021/08/15 06:46:31;;;;;;;;;;;18.10;99.90;;;;;;1927812;74;20285;-77
2021/08/15 06:48:57;;;;;;;;;;;18.10;99.90;;;;;;1916519;74;20198;-73
2021/08/15 06:51:24;;;;;;;;;;;18.10;99.90;;;;;;1936334;74;20158;-73
2021/08/15 06:53:51;;;;;;;;;;;18.20;99.90;;;;;;1933757;74;20150;-74
2021/08/15 06:56:18;;;;;;;;;;;18.20;99.90;;;;;;1916546;74;20166;-72
2021/08/15 06:58:45;;;;;;;;;;;18.40;99.90;;;;;;1936332;74;20162;-73
2021/08/15 07:01:13;;;;;;;;;;;18.40;99.90;;;;;;1932855;74;20187;-73
2021/08/15 07:03:39;;;;;;;;;;;18.40;99.90;;;;;;1930595;74;20461;-73
2021/08/15 07:06:06;;;;;;;;;;;18.50;99.90;;;;;;1929730;74;20158;-73
2021/08/15 07:08:33;;;;;;;;;;;18.60;99.90;;;;;;1916895;74;20374;-73
2021/08/15 07:11:00;;;;;;;;;;;18.60;99.90;;;;;;1933679;72;20300;-73
2021/08/15 07:13:27;;;;;;;;;;;18.70;99.90;;;;;;1929068;72;20179;-73
2021/08/15 07:15:53;;;;;;;;;;;18.70;99.90;;;;;;1922178;74;20689;-73
2021/08/15 07:18:21;;;;;;;;;;;18.70;99.90;;;;;;1934979;74;20159;-73
2021/08/15 07:20:57;;;;;;;;;;;18.80;99.90;;;;;;1947958;72;20196;-73
2021/08/15 07:23:16;;;;;;;;;;;18.80;99.90;;;;;;1946256;72;20174;-73
2021/08/15 07:25:43;;;;;;;;;;;18.90;99.90;;;;;;1946803;73;20170;-73
2021/08/15 07:28:10;;;;;;;;;;;18.90;99.90;;;;;;1927433;73;20219;-73
2021/08/15 07:30:37;;;;;;;;;;;18.90;99.90;;;;;;1942892;72;20181;-73
2021/08/15 07:33:05;;;;;;;;;;;18.90;99.90;;;;;;1943541;73;20159;-73
2021/08/15 07:35:33;;;;;;;;;;;19.00;99.90;;;;;;1951012;73;20248;-74
2021/08/15 07:37:59;;;;;;;;;;;19.10;99.90;;;;;;1940782;73;20185;-74
2021/08/15 07:40:27;;;;;;;;;;;19.10;99.90;;;;;;1929652;73;20176;-72
2021/08/15 07:42:54;;;;;;;;;;;19.20;99.90;;;;;;1955246;72;20213;-72
2021/08/15 07:45:21;;;;;;;;;;;19.20;99.90;;;;;;1926886;73;20175;-72
2021/08/15 07:47:48;;;;;;;;;;;19.20;99.90;;;;;;1940590;72;20192;-73
2021/08/15 07:50:15;;;;;;;;;;;19.20;99.90;;;;;;1937697;72;20197;-73
2021/08/15 07:52:42;;;;;;;;;;;19.30;99.90;;;;;;1940800;73;20296;-73
2021/08/15 07:55:09;;;;;;;;;;;19.40;99.90;;;;;;1918416;73;20189;-72
2021/08/15 07:57:36;;;;;;;;;;;19.30;99.90;;;;;;1941070;73;20193;-72
2021/08/15 08:00:03;;;;;;;;;;;19.40;99.90;;;;;;1932663;73;20205;-74
2021/08/15 08:02:30;;;;;;;;;;;19.40;99.90;;;;;;1951497;72;20137;-72
2021/08/15 08:04:56;;;;;;;;;;;19.40;99.90;;;;;;1936369;73;20262;-72
2021/08/15 08:07:24;;;;;;;;;;;19.40;99.90;;;;;;1926378;73;20104;-71
2021/08/15 08:09:52;;;;;;;;;;;19.50;99.90;;;;;;1963201;72;20171;-73
2021/08/15 08:12:19;;;;;;;;;;;19.50;99.90;;;;;;1949609;72;20169;-73
2021/08/15 08:14:47;;;;;;;;;;;19.50;99.90;;;;;;1967039;72;20182;-72
2021/08/15 08:17:14;;;;;;;;;;;19.60;99.90;;;;;;1958177;72;20116;-72
2021/08/15 08:19:42;;;;;;;;;;;19.60;99.90;;;;;;1910031;73;20206;-71
2021/08/15 08:22:10;;;;;;;;;;;19.70;99.90;;;;;;1913330;74;20165;-73
2021/08/15 08:24:37;;;;;;;;;;;19.70;99.90;;;;;;1923405;73;20166;-72
2021/08/15 08:27:04;;;;;;;;;;;19.70;99.90;;;;;;1955594;72;20213;-72
2021/08/15 08:29:31;;;;;;;;;;;19.80;99.90;;;;;;1948771;72;20272;-71
2021/08/15 08:31:58;;;;;;;;;;;20.00;99.90;;;;;;1952595;72;20193;-70
2021/08/15 08:34:24;;;;;;;;;;;20.00;99.90;;;;;;1915563;73;20466;-71
2021/08/15 08:36:51;;;;;;;;;;;20.00;99.90;;;;;;1946580;72;20173;-71
2021/08/15 08:39:18;;;;;;;;;;;20.10;99.90;;;;;;1901606;73;20224;-71
2021/08/15 08:41:45;;;;;;;;;;;20.10;99.90;;;;;;1917030;73;20195;-72
2021/08/15 08:44:13;;;;;;;;;;;20.10;99.90;;;;;;1942062;73;20276;-70
2021/08/15 08:46:40;;;;;;;;;;;20.20;99.90;;;;;;1957249;73;20405;-70
2021/08/15 08:49:07;;;;;;;;;;;20.20;99.90;;;;;;1951388;73;20179;-71
2021/08/15 08:51:34;;;;;;;;;;;20.30;99.90;;;;;;1933324;73;20113;-71
2021/08/15 08:54:02;;;;;;;;;;;20.40;99.90;;;;;;1919929;72;20167;-71
2021/08/15 08:56:29;;;;;;;;;;;20.40;99.90;;;;;;1863465;76;20533;-71
2021/08/15 08:58:56;;;;;;;;;;;20.40;99.90;;;;;;1924736;73;20169;-71
2021/08/15 09:01:22;;;;;;;;;;;20.40;99.90;;;;;;1926224;73;20400;-71
2021/08/15 09:03:49;;;;;;;;;;;20.40;99.90;;;;;;1924825;73;20177;-72
2021/08/15 09:06:23;;;;;;;;;;;20.40;99.90;;;;;;1920934;73;20251;-74
2021/08/15 09:08:51;;;;;;;;;;;20.50;99.90;;;;;;1924142;74;20456;-70
2021/08/15 09:11:22;;;;;;;;;;;20.60;99.90;;;;;;1921120;73;20250;-70
2021/08/15 09:14:09;;;;;;;;;;;20.70;99.90;;;;;;1925086;74;20367;-72
2021/08/15 09:16:55;;;;;;;;;;;20.70;99.90;;;;;;1928107;74;20160;-73
2021/08/15 09:19:35;;;;;;;;;;;20.70;99.90;;;;;;1922074;73;20156;-72
2021/08/15 09:22:13;;;;;;;;;;;20.80;99.90;;;;;;1897922;73;20191;-75
2021/08/15 09:24:54;;;;;;;;;;;21.00;99.90;;;;;;1894283;76;20178;-72
2021/08/15 09:27:22;;;;;;;;;;;20.90;99.90;;;;;;1937315;73;20159;-71
2021/08/15 09:30:07;;;;;;;;;;;20.90;99.90;;;;;;1922558;74;20148;-72
2021/08/15 09:32:35;;;;;;;;;;;20.90;99.90;;;;;;1919031;73;20176;-71
2021/08/15 09:35:02;;;;;;;;;;;20.80;99.90;;;;;;1923073;73;20219;-71
2021/08/15 09:37:30;;;;;;;;;;;20.80;99.90;;;;;;1920919;73;20245;-72
2021/08/15 09:39:56;;;;;;;;;;;20.90;99.90;;;;;;1926262;73;20184;-71
2021/08/15 09:42:40;;;;;;;;;;;20.90;99.90;;;;;;1926512;73;20153;-72
2021/08/15 09:45:07;;;;;;;;;;;20.90;99.90;;;;;;1906166;74;20171;-71
2021/08/15 09:47:34;;;;;;;;;;;20.90;99.90;;;;;;1912172;73;20458;-71
2021/08/15 09:50:02;;;;;;;;;;;21.20;99.90;;;;;;1927002;73;20181;-72
2021/08/15 09:52:39;;;;;;;;;;;21.20;99.90;;;;;;1918398;74;20481;-72
2021/08/15 09:55:05;;;;;;;;;;;21.30;99.90;;;;;;1925906;74;20288;-72
2021/08/15 09:57:36;;;;;;;;;;;21.50;99.90;;;;;;1928330;74;20110;-72
2021/08/15 10:00:04;;;;;;;;;;;21.50;99.90;;;;;;1923518;74;20376;-73
2021/08/15 10:02:31;;;;;;;;;;;21.40;99.90;;;;;;1927770;74;20123;-73
2021/08/15 10:04:58;;;;;;;;;;;21.40;99.90;;;;;;1908371;73;20421;-76
2021/08/15 10:07:25;;;;;;;;;;;21.40;99.90;;;;;;1924933;73;20125;-72
2021/08/15 10:09:52;;;;;;;;;;;21.40;99.90;;;;;;1927983;74;20147;-72
2021/08/15 10:12:19;;;;;;;;;;;21.60;99.90;;;;;;1928180;74;20178;-74
2021/08/15 10:14:45;;;;;;;;;;;21.70;99.90;;;;;;1927407;74;20196;-73
2021/08/15 10:17:14;;;;;;;;;;;21.80;99.90;;;;;;1926569;74;20169;-73
2021/08/15 10:19:57;;;;;;;;;;;21.80;99.90;;;;;;1924249;74;20177;-73
2021/08/15 10:22:25;;;;;;;;;;;21.80;99.90;;;;;;1909835;73;20168;-74
2021/08/15 10:24:54;;;;;;;;;;;21.70;99.90;;;;;;1925465;74;20168;-73
2021/08/15 10:27:39;;;;;;;;;;;21.90;99.90;;;;;;1923547;73;20161;-73
2021/08/15 10:30:13;;;;;;;;;;;22.10;99.90;;;;;;1903102;73;20197;-73
2021/08/15 10:32:57;;;;;;;;;;;22.10;99.90;;;;;;1916690;74;20138;-73
2021/08/15 10:35:24;;;;;;;;;;;22.10;99.90;;;;;;1924515;73;20235;-72
2021/08/15 10:37:52;;;;;;;;;;;22.10;99.90;;;;;;1927016;74;20239;-73
2021/08/15 10:40:37;;;;;;;;;;;22.10;99.90;;;;;;1925719;74;20216;-73
2021/08/15 10:43:05;;;;;;;;;;;22.00;99.90;;;;;;1925269;73;20110;-73
2021/08/15 10:45:32;;;;;;;;;;;22.20;99.90;;;;;;1908756;74;20246;-74
2021/08/15 10:48:12;;;;;;;;;;;22.30;99.90;;;;;;1926444;74;20391;-73
2021/08/15 10:50:43;;;;;;;;;;;22.40;99.90;;;;;;1920785;74;20158;-73
2021/08/15 10:53:30;;;;;;;;;;;22.70;99.90;;;;;;1927630;73;20200;-72
2021/08/15 10:55:58;;;;;;;;;;;22.90;99.90;;;;;;1927342;74;20157;-71
2021/08/15 10:58:38;;;;;;;;;;;23.10;99.90;;;;;;1927195;73;20122;-72
2021/08/15 11:01:06;;;;;;;;;;;22.90;99.90;;;;;;1927962;74;20241;-71
2021/08/15 11:03:37;;;;;;;;;;;22.90;99.90;;;;;;1926464;73;20216;-73
2021/08/15 11:06:04;;;;;;;;;;;22.80;99.90;;;;;;1927516;74;20191;-73
2021/08/15 11:08:35;;;;;;;;;;;22.80;99.90;;;;;;1923134;73;20176;-72
2021/08/15 11:11:04;;;;;;;;;;;22.90;99.90;;;;;;1927319;74;20180;-73
2021/08/15 11:13:35;;;;;;;;;;;22.80;99.90;;;;;;1914077;74;20175;-73
2021/08/15 11:16:03;;;;;;;;;;;22.70;99.90;;;;;;1902637;74;20153;-72
2021/08/15 11:18:32;;;;;;;;;;;22.60;99.90;;;;;;1851184;74;20169;-72
2021/08/15 11:20:59;;;;;;;;;;;22.50;99.90;;;;;;1926930;74;20153;-72
2021/08/15 11:23:26;;;;;;;;;;;22.50;99.90;;;;;;1921604;73;20176;-73
2021/08/15 11:25:53;;;;;;;;;;;22.50;99.90;;;;;;1919896;73;20148;-72
2021/08/15 11:28:23;;;;;;;;;;;22.50;99.90;;;;;;1927785;74;20153;-73
2021/08/15 11:30:55;;;;;;;;;;;22.70;99.90;;;;;;1915119;74;20459;-73
2021/08/15 11:33:23;;;;;;;;;;;23.00;99.90;;;;;;1926722;74;20177;-71
2021/08/15 11:35:50;;;;;;;;;;;23.10;99.90;;;;;;1906514;73;20176;-71
2021/08/15 11:38:18;;;;;;;;;;;23.00;99.90;;;;;;1918109;73;20164;-72
2021/08/15 11:40:46;;;;;;;;;;;23.00;99.90;;;;;;1926702;73;20430;-71
2021/08/15 11:43:15;;;;;;;;;;;23.20;99.90;;;;;;1923317;74;20130;-73
2021/08/15 11:45:46;;;;;;;;;;;23.30;99.90;;;;;;1924767;73;20355;-73
2021/08/15 11:48:15;;;;;;;;;;;23.30;99.90;;;;;;1923068;73;20226;-73
2021/08/15 11:50:43;;;;;;;;;;;23.20;99.90;;;;;;1926737;74;20825;-73
2021/08/15 11:53:20;;;;;;;;;;;23.20;99.90;;;;;;1926112;73;20172;-73
2021/08/15 11:55:47;;;;;;;;;;;23.40;99.90;;;;;;1933302;73;20559;-74
2021/08/15 11:58:14;;;;;;;;;;;23.50;99.90;;;;;;1924974;73;20228;-74
2021/08/15 12:00:41;;;;;;;;;;;23.30;99.90;;;;;;1931339;73;20274;-73
2021/08/15 12:03:12;;;;;;;;;;;23.30;99.90;;;;;;1923698;73;20628;-74
2021/08/15 12:05:46;;;;;;;;;;;23.20;99.90;;;;;;1918582;73;20181;-74
2021/08/15 12:08:15;;;;;;;;;;;23.20;99.90;;;;;;1919853;73;20313;-73
2021/08/15 12:10:47;;;;;;;;;;;23.30;99.90;;;;;;1919466;73;20234;-75
2021/08/15 12:13:15;;;;;;;;;;;23.40;99.90;;;;;;1920543;73;20206;-76
2021/08/15 12:15:53;;;;;;;;;;;23.50;99.90;;;;;;1926517;73;20184;-73
2021/08/15 12:18:27;;;;;;;;;;;23.60;99.90;;;;;;1918413;73;20186;-75
2021/08/15 12:20:54;;;;;;;;;;;23.80;99.90;;;;;;1914792;73;20202;-73
2021/08/15 12:23:21;;;;;;;;;;;23.90;99.90;;;;;;1924074;73;20209;-74
2021/08/15 12:26:05;;;;;;;;;;;23.90;99.90;;;;;;1902754;74;20170;-75
2021/08/15 12:28:33;;;;;;;;;;;23.70;99.90;;;;;;1907340;73;20135;-74
2021/08/15 12:31:19;;;;;;;;;;;23.60;99.90;;;;;;1921680;74;20254;-75
2021/08/15 12:33:46;;;;;;;;;;;23.70;99.90;;;;;;1925135;73;20218;-74
2021/08/15 12:36:18;;;;;;;;;;;23.90;99.90;;;;;;1926591;73;20176;-75
2021/08/15 12:38:45;;;;;;;;;;;24.00;99.90;;;;;;1910627;73;20216;-74
2021/08/15 12:41:25;;;;;;;;;;;24.40;99.90;;;;;;1926900;74;20473;-76
2021/08/15 12:44:05;;;;;;;;;;;24.30;99.90;;;;;;1926572;73;20121;-75
2021/08/15 12:46:32;;;;;;;;;;;24.30;99.90;;;;;;1923694;73;20106;-75
2021/08/15 12:48:59;;;;;;;;;;;24.30;99.90;;;;;;1924174;73;20193;-75
2021/08/15 12:51:26;;;;;;;;;;;24.20;99.90;;;;;;1926161;74;20157;-75
2021/08/15 12:53:54;;;;;;;;;;;24.40;99.90;;;;;;1926260;73;20238;-76
2021/08/15 12:56:20;;;;;;;;;;;24.60;99.90;;;;;;1926389;73;20206;-74
2021/08/15 12:58:47;;;;;;;;;;;24.40;99.90;;;;;;1916372;74;20900;-74
2021/08/15 13:01:14;;;;;;;;;;;24.50;99.90;;;;;;1923640;74;20208;-74
2021/08/15 13:03:42;;;;;;;;;;;24.50;99.90;;;;;;1924632;73;20454;-75
2021/08/15 13:06:11;;;;;;;;;;;24.60;99.90;;;;;;1925903;74;20181;-75
2021/08/15 13:08:38;;;;;;;;;;;24.40;99.90;;;;;;1923325;74;20180;-75
2021/08/15 13:11:05;;;;;;;;;;;24.20;99.90;;;;;;1924995;73;20648;-75
2021/08/15 13:13:32;;;;;;;;;;;24.40;99.90;;;;;;1922012;74;20232;-74
2021/08/15 13:15:58;;;;;;;;;;;24.30;99.90;;;;;;1925293;73;20497;-75
2021/08/15 13:18:25;;;;;;;;;;;24.30;99.90;;;;;;1925994;73;20160;-76
2021/08/15 13:20:52;;;;;;;;;;;24.40;99.90;;;;;;1923025;73;20486;-75
2021/08/15 13:23:19;;;;;;;;;;;24.40;99.90;;;;;;1922515;73;20193;-75
2021/08/15 13:25:49;;;;;;;;;;;24.30;99.90;;;;;;1926167;74;20438;-76
2021/08/15 13:28:21;;;;;;;;;;;24.20;99.90;;;;;;1924581;73;20126;-76
2021/08/15 13:30:47;;;;;;;;;;;24.10;99.90;;;;;;1925826;73;20203;-75
2021/08/15 13:33:14;;;;;;;;;;;24.30;99.90;;;;;;1923809;73;20558;-76
2021/08/15 13:35:41;;;;;;;;;;;24.20;99.90;;;;;;1926569;74;20172;-74
2021/08/15 13:38:08;;;;;;;;;;;24.10;99.90;;;;;;1926988;73;20446;-75
2021/08/15 13:40:35;;;;;;;;;;;24.10;99.90;;;;;;1927322;73;20110;-76
2021/08/15 13:43:02;;;;;;;;;;;24.00;99.90;;;;;;1924765;74;20207;-77
2021/08/15 13:45:29;;;;;;;;;;;24.30;99.90;;;;;;1923368;73;20157;-76
2021/08/15 13:47:56;;;;;;;;;;;24.30;99.90;;;;;;1920264;73;20237;-76
2021/08/15 13:50:22;;;;;;;;;;;24.50;99.90;;;;;;1924096;73;20152;-76
2021/08/15 13:52:49;;;;;;;;;;;24.50;99.90;;;;;;1920292;74;20126;-76
2021/08/15 13:55:16;;;;;;;;;;;24.40;99.90;;;;;;1928054;73;20180;-76
2021/08/15 13:57:44;;;;;;;;;;;24.50;99.90;;;;;;1926154;73;20368;-77
2021/08/15 14:00:12;;;;;;;;;;;24.50;99.90;;;;;;1924940;73;20702;-76
2021/08/15 14:02:38;;;;;;;;;;;24.70;99.90;;;;;;1924906;74;20454;-76
2021/08/15 14:05:05;;;;;;;;;;;24.60;99.90;;;;;;1917887;73;20169;-76
2021/08/15 14:07:32;;;;;;;;;;;24.60;99.90;;;;;;1924317;73;20242;-77
2021/08/15 14:09:59;;;;;;;;;;;24.70;99.90;;;;;;1924803;73;20165;-76
2021/08/15 14:12:26;;;;;;;;;;;24.50;99.90;;;;;;1922670;73;20184;-76
2021/08/15 14:14:52;;;;;;;;;;;24.40;99.90;;;;;;1919908;73;20192;-73
2021/08/15 14:17:19;;;;;;;;;;;24.50;99.90;;;;;;1925979;73;20227;-72
2021/08/15 14:19:46;;;;;;;;;;;24.70;99.90;;;;;;1925903;73;20352;-72
2021/08/15 14:22:13;;;;;;;;;;;25.00;99.90;;;;;;1926543;73;20192;-73